Time;durP1;ratioP1;P1;durP2;ratioP2;P2;SDS_P1;SDS_P2;PMS_P1;PMS_P2;Temp;Humidity;BMP_temperature;BMP_pressure;BME280_temperature;BME280_humidity;BME280_pressure;Samples;Min_cycle;Max_cycle;Signal;HPM_P1;HPM_P2
2022/02/14 00:00:01;;;;;;;33.98;15.70;;;;;;;-1.59;69.04;100161.36;2137991;82;21026;-88
2022/02/14 00:03:03;;;;;;;35.15;14.78;;;;;;;-1.54;69.04;100166.31;2138154;82;21091;-86
2022/02/14 00:06:04;;;;;;;28.65;14.28;;;;;;;-1.55;68.95;100160.24;2139323;82;21026;-88
2022/02/14 00:09:05;;;;;;;34.45;15.05;;;;;;;-1.53;68.73;100160.16;2136318;82;20953;-88
2022/02/14 00:12:08;;;;;;;31.57;14.07;;;;;;;-1.55;68.68;100162.84;2142925;82;21118;-87
2022/02/14 00:15:10;;;;;;;29.75;14.70;;;;;;;-1.57;68.92;100158.22;2145661;82;21497;-87
2022/02/14 00:18:12;;;;;;;36.05;15.35;;;;;;;-1.62;68.84;100164.14;2142982;82;21098;-87
2022/02/14 00:21:13;;;;;;;31.75;15.23;;;;;;;-1.66;68.82;100162.63;2143309;82;20978;-88
2022/02/14 00:24:16;;;;;;;35.10;15.78;;;;;;;-1.69;68.87;100153.70;2144011;82;21024;-87
2022/02/14 00:27:19;;;;;;;34.70;15.08;;;;;;;-1.71;68.92;100158.17;2144155;82;21048;-90
2022/02/14 00:30:20;;;;;;;31.95;14.33;;;;;;;-1.76;68.95;100148.48;2140488;82;21041;-88
2022/02/14 00:33:21;;;;;;;30.97;14.23;;;;;;;-1.78;69.13;100158.13;2142778;82;20976;-88
2022/02/14 00:36:22;;;;;;;27.52;14.20;;;;;;;-1.81;69.16;100157.84;2133040;82;21568;-88
2022/02/14 00:39:25;;;;;;;31.50;14.70;;;;;;;-1.84;68.99;100148.91;2137426;82;21725;-87
2022/02/14 00:42:27;;;;;;;29.70;13.93;;;;;;;-1.86;68.90;100139.91;2133626;82;21043;-87
2022/02/14 00:45:28;;;;;;;27.77;13.93;;;;;;;-1.87;68.95;100148.62;2141836;82;21493;-88
2022/02/14 00:48:31;;;;;;;26.68;12.78;;;;;;;-1.85;68.88;100138.97;2139951;82;21036;-87
2022/02/14 00:51:33;;;;;;;27.87;12.58;;;;;;;-1.86;68.77;100138.61;2139452;82;21009;-88
2022/02/14 00:54:35;;;;;;;32.50;16.40;;;;;;;-1.84;68.68;100135.44;2143268;82;21016;-85
2022/02/14 00:57:37;;;;;;;29.37;14.73;;;;;;;-1.86;68.60;100132.11;2135145;82;21533;-88
2022/02/14 01:00:38;;;;;;;27.48;12.07;;;;;;;-1.86;68.55;100132.11;2145051;82;21011;-88
2022/02/14 01:03:40;;;;;;;22.42;11.20;;;;;;;-1.87;68.48;100133.02;2117727;84;21025;-87
2022/02/14 01:06:42;;;;;;;22.98;11.15;;;;;;;-1.86;68.41;100139.91;2115793;84;21046;-86
2022/02/14 01:09:44;;;;;;;21.97;11.70;;;;;;;-1.83;68.36;100135.83;2112630;84;21059;-87
2022/02/14 01:12:45;;;;;;;21.68;10.10;;;;;;;-1.79;68.23;100135.19;2116877;84;21496;-86
2022/02/14 01:15:46;;;;;;;21.77;10.60;;;;;;;-1.75;68.20;100134.53;2110324;84;21134;-86
2022/02/14 01:18:49;;;;;;;22.07;10.55;;;;;;;-1.75;68.05;100128.87;2117545;84;21474;-86
2022/02/14 01:21:50;;;;;;;26.42;11.35;;;;;;;-1.78;68.10;100125.14;2111843;84;20986;-87
2022/02/14 01:24:51;;;;;;;17.82;8.38;;;;;;;-1.75;68.11;100120.23;2106525;84;21046;-88
2022/02/14 01:27:53;;;;;;;19.00;9.03;;;;;;;-1.74;68.10;100129.27;2110118;84;21068;-86
2022/02/14 01:30:54;;;;;;;21.55;8.93;;;;;;;-1.71;67.83;100121.28;2111740;84;21029;-87
2022/02/14 01:33:55;;;;;;;19.95;9.98;;;;;;;-1.71;67.76;100116.55;2113387;84;21033;-87
2022/02/14 01:36:57;;;;;;;26.80;10.68;;;;;;;-1.73;67.70;100118.39;2120097;84;21072;-87
2022/02/14 01:39:58;;;;;;;18.80;8.30;;;;;;;-1.76;67.54;100109.46;2113179;83;21105;-86
2022/02/14 01:43:00;;;;;;;19.10;9.55;;;;;;;-1.84;67.48;100101.63;2109211;84;21062;-87
2022/02/14 01:46:01;;;;;;;19.90;10.05;;;;;;;-1.90;67.50;100105.88;2110427;83;21527;-87
2022/02/14 01:49:04;;;;;;;17.45;8.98;;;;;;;-1.98;67.58;100101.58;2109003;84;21026;-87
2022/02/14 01:52:07;;;;;;;17.87;8.98;;;;;;;-2.00;67.64;100100.81;2109807;84;21064;-87
2022/02/14 01:55:11;;;;;;;20.30;8.78;;;;;;;-2.09;67.76;100094.84;2112439;84;21066;-86
2022/02/14 01:58:12;;;;;;;17.62;10.00;;;;;;;-2.19;67.95;100090.64;2119314;83;20989;-87
2022/02/14 02:01:13;;;;;;;23.35;10.65;;;;;;;-2.28;68.05;100088.09;2112411;84;21014;-87
2022/02/14 02:04:15;;;;;;;25.35;10.32;;;;;;;-2.33;68.21;100082.78;2111403;83;21042;-86
2022/02/14 02:07:16;;;;;;;16.07;8.43;;;;;;;-2.37;68.38;100079.95;2113465;84;21558;-88
2022/02/14 02:10:19;;;;;;;19.12;9.80;;;;;;;-2.39;68.47;100072.70;2114999;83;21042;-86
2022/02/14 02:13:20;;;;;;;19.77;10.60;;;;;;;-2.47;68.43;100073.62;2114627;83;21066;-86
2022/02/14 02:16:22;;;;;;;19.23;10.18;;;;;;;-2.49;68.55;100077.58;2116052;83;20986;-87
2022/02/14 02:19:23;;;;;;;21.55;9.15;;;;;;;-2.47;68.50;100071.02;2112697;84;21148;-87
2022/02/14 02:22:25;;;;;;;20.00;9.75;;;;;;;-2.52;68.44;100073.86;2109860;84;21054;-87
2022/02/14 02:25:26;;;;;;;26.48;11.35;;;;;;;-2.55;68.56;100075.33;2117919;84;21058;-86
2022/02/14 02:28:27;;;;;;;21.68;11.45;;;;;;;-2.65;68.72;100058.56;2111352;84;21490;-87
2022/02/14 02:31:29;;;;;;;23.60;11.08;;;;;;;-2.73;68.91;100054.64;2105865;83;21082;-88
2022/02/14 02:34:30;;;;;;;24.90;11.55;;;;;;;-2.79;68.98;100053.68;2113236;84;21132;-87
2022/02/14 02:37:31;;;;;;;27.85;12.20;;;;;;;-2.84;69.02;100057.45;2115532;84;21021;-87
2022/02/14 02:40:33;;;;;;;21.97;11.30;;;;;;;-2.87;69.12;100051.09;2110726;84;20977;-86
2022/02/14 02:43:34;;;;;;;21.82;10.72;;;;;;;-2.86;69.19;100048.42;2115382;84;21081;-86
2022/02/14 02:46:35;;;;;;;22.58;11.03;;;;;;;-2.80;68.97;100050.69;2115836;84;21041;-88
2022/02/14 02:49:37;;;;;;;21.48;10.63;;;;;;;-2.81;69.00;100048.19;2116489;84;21575;-87
2022/02/14 02:52:38;;;;;;;27.75;13.08;;;;;;;-2.89;69.16;100040.80;2115034;83;21088;-87
2022/02/14 02:55:39;;;;;;;27.37;12.73;;;;;;;-2.90;69.47;100031.35;2109799;83;21056;-87
2022/02/14 02:58:41;;;;;;;24.00;11.78;;;;;;;-2.86;69.68;100030.25;2111201;84;21626;-88
2022/02/14 03:01:43;;;;;;;21.12;10.78;;;;;;;-2.79;69.77;100028.14;2116819;84;20971;-88
2022/02/14 03:04:45;;;;;;;20.52;10.55;;;;;;;-2.74;69.56;100026.97;2120578;84;21017;-88
2022/02/14 03:07:46;;;;;;;21.60;10.40;;;;;;;-2.75;69.46;100029.20;2114926;84;21073;-88
2022/02/14 03:10:47;;;;;;;17.67;10.15;;;;;;;-2.77;69.48;100021.11;2109935;83;21009;-88
2022/02/14 03:13:50;;;;;;;24.15;9.83;;;;;;;-2.78;69.49;100021.58;2114279;84;21037;-86
2022/02/14 03:16:52;;;;;;;21.45;10.68;;;;;;;-2.80;69.33;100013.49;2108562;84;21040;-87
2022/02/14 03:19:53;;;;;;;23.35;10.15;;;;;;;-2.83;69.74;100018.39;2119302;84;21094;-87
2022/02/14 03:22:54;;;;;;;22.00;10.00;;;;;;;-2.94;69.88;100015.55;2106661;84;21003;-87
2022/02/14 03:25:56;;;;;;;18.82;9.38;;;;;;;-3.01;70.16;100011.62;2113947;83;21563;-86
2022/02/14 03:28:58;;;;;;;17.45;9.50;;;;;;;-3.13;70.21;100013.09;2110993;84;20989;-86
2022/02/14 03:31:59;;;;;;;17.80;9.50;;;;;;;-3.19;70.29;100001.75;2110070;83;21049;-87
2022/02/14 03:35:00;;;;;;;18.30;9.48;;;;;;;-3.23;70.22;100004.98;2109802;84;21325;-89
2022/02/14 03:38:07;;;;;;;20.85;10.35;;;;;;;-3.25;70.42;99993.00;2118153;84;21041;-88
2022/02/14 03:41:06;;;;;;;18.55;10.00;;;;;;;-3.17;70.44;99996.02;2105812;84;21058;-88
2022/02/14 03:44:07;;;;;;;20.23;9.73;;;;;;;-3.13;70.21;99996.22;2113674;84;21084;-90
2022/02/14 03:47:10;;;;;;;21.02;10.65;;;;;;;-3.10;70.09;99989.56;2114188;84;21109;-89
2022/02/14 03:50:11;;;;;;;18.07;10.20;;;;;;;-3.11;70.08;100001.34;2107938;84;21082;-87
2022/02/14 03:53:12;;;;;;;19.80;9.68;;;;;;;-3.14;70.22;99998.92;2109767;84;21551;-88
2022/02/14 03:56:13;;;;;;;19.15;10.48;;;;;;;-3.14;70.25;99997.62;2109250;84;21025;-87
2022/02/14 03:59:15;;;;;;;23.55;10.18;;;;;;;-3.14;70.25;99997.62;2114758;83;21551;-87
2022/02/14 04:02:16;;;;;;;17.98;10.08;;;;;;;-3.12;70.30;99995.79;2111629;84;21006;-88
2022/02/14 04:05:19;;;;;;;19.77;9.95;;;;;;;-3.11;70.19;99995.69;2118576;83;21005;-86
2022/02/14 04:08:20;;;;;;;17.23;9.25;;;;;;;-3.10;70.32;99988.27;2116750;84;21033;-87
2022/02/14 04:11:22;;;;;;;20.80;9.73;;;;;;;-3.11;70.42;99988.37;2116785;83;21041;-86
2022/02/14 04:14:23;;;;;;;18.85;9.25;;;;;;;-3.23;70.32;99984.22;2113035;84;21042;-86
2022/02/14 04:17:25;;;;;;;22.65;10.80;;;;;;;-3.24;70.44;99988.17;2116004;84;21073;-86
2022/02/14 04:20:27;;;;;;;35.38;15.30;;;;;;;-3.25;70.57;99979.56;2112119;83;21183;-89
2022/02/14 04:23:28;;;;;;;32.08;15.38;;;;;;;-3.29;70.62;99979.83;2114522;84;21041;-88
2022/02/14 04:26:29;;;;;;;34.08;15.28;;;;;;;-3.32;70.70;99970.45;2109097;84;20974;-87
2022/02/14 04:29:30;;;;;;;75.22;22.87;;;;;;;-3.32;70.50;99978.23;2118425;83;21037;-89
2022/02/14 04:32:32;;;;;;;81.05;26.23;;;;;;;-3.30;70.53;99981.55;2111962;84;22265;-86
2022/02/14 04:35:34;;;;;;;63.17;19.55;;;;;;;-3.33;70.28;99979.13;2111346;84;21033;-86
2022/02/14 04:38:35;;;;;;;49.75;19.48;;;;;;;-3.34;70.16;99973.58;2141209;82;21011;-86
2022/02/14 04:41:36;;;;;;;58.20;19.52;;;;;;;-3.32;70.33;99970.87;2139882;82;21007;-86
2022/02/14 04:44:37;;;;;;;47.78;17.98;;;;;;;-3.32;70.06;99973.04;2143981;82;21561;-86
2022/02/14 04:47:38;;;;;;;25.02;11.78;;;;;;;-3.32;70.48;99965.25;2140100;82;21002;-86
2022/02/14 04:50:40;;;;;;;20.97;10.05;;;;;;;-3.32;70.67;99966.55;2140541;82;21036;-84
2022/02/14 04:53:41;;;;;;;18.50;9.58;;;;;;;-3.36;70.94;99953.35;2144450;82;21007;-86
2022/02/14 04:56:43;;;;;;;18.17;9.40;;;;;;;-3.43;71.11;99959.80;2138862;82;21057;-85
2022/02/14 04:59:44;;;;;;;23.40;9.90;;;;;;;-3.48;71.11;99964.39;2143091;82;20987;-87
2022/02/14 05:02:46;;;;;;;31.82;9.53;;;;;;;-3.57;71.21;99957.94;2141756;82;21458;-85
2022/02/14 05:05:47;;;;;;;23.25;10.53;;;;;;;-3.72;71.45;99958.26;2144053;82;21019;-87
2022/02/14 05:08:48;;;;;;;23.32;10.95;;;;;;;-3.78;71.70;99957.75;2140912;82;21012;-87
2022/02/14 05:11:50;;;;;;;21.95;11.28;;;;;;;-3.86;71.69;99949.06;2108264;84;21048;-87
2022/02/14 05:14:51;;;;;;;20.30;9.95;;;;;;;-3.86;71.96;99955.55;2115515;84;21611;-88
2022/02/14 05:17:53;;;;;;;25.37;9.60;;;;;;;-3.89;71.97;99953.95;2113269;84;21029;-85
2022/02/14 05:20:54;;;;;;;18.17;8.93;;;;;;;-3.87;71.96;99956.47;2118396;83;21527;-85
2022/02/14 05:23:56;;;;;;;20.60;9.43;;;;;;;-3.87;72.10;99960.36;2104857;84;21030;-84
2022/02/14 05:26:57;;;;;;;15.98;8.08;;;;;;;-3.87;72.04;99953.88;2111481;84;21588;-87
2022/02/14 05:29:59;;;;;;;19.00;7.95;;;;;;;-3.92;72.08;99951.98;2107119;84;21077;-86
2022/02/14 05:33:02;;;;;;;15.95;8.28;;;;;;;-3.93;72.28;99952.91;2113349;84;21002;-87
2022/02/14 05:36:04;;;;;;;18.85;8.30;;;;;;;-3.91;72.34;99953.21;2111546;84;21064;-87
2022/02/14 05:39:05;;;;;;;14.90;7.62;;;;;;;-3.88;72.19;99952.22;2112933;83;21034;-85
2022/02/14 05:42:08;;;;;;;17.75;10.08;;;;;;;-3.85;72.07;99952.05;2109790;84;21065;-86
2022/02/14 05:45:10;;;;;;;20.17;9.98;;;;;;;-3.86;72.17;99954.25;2116838;83;20993;-85
2022/02/14 05:48:11;;;;;;;17.32;8.78;;;;;;;-3.90;72.07;99957.93;2115839;84;21537;-86
2022/02/14 05:51:15;;;;;;;23.83;10.63;;;;;;;-3.93;72.06;99952.91;2112534;84;21050;-87
2022/02/14 05:54:16;;;;;;;15.90;8.45;;;;;;;-3.86;72.16;99952.52;2113107;84;21111;-84
2022/02/14 05:57:20;;;;;;;17.45;8.80;;;;;;;-3.80;72.28;99952.66;2106775;83;21011;-86
2022/02/14 06:00:21;;;;;;;19.15;9.90;;;;;;;-3.72;72.00;99964.74;2112421;84;21025;-87
2022/02/14 06:03:23;;;;;;;18.77;9.03;;;;;;;-3.65;71.90;99967.41;2113425;84;21527;-88
2022/02/14 06:06:24;;;;;;;19.87;10.23;;;;;;;-3.63;71.89;99960.39;2113352;84;21002;-84
2022/02/14 06:09:28;;;;;;;17.85;9.03;;;;;;;-3.66;71.76;99968.34;2110554;83;21068;-86
2022/02/14 06:12:29;;;;;;;16.73;10.23;;;;;;;-3.67;72.14;99957.56;2113896;84;21006;-86
2022/02/14 06:15:30;;;;;;;19.02;10.50;;;;;;;-3.69;72.15;99967.20;2114780;84;21327;-88
2022/02/14 06:18:32;;;;;;;33.58;14.45;;;;;;;-3.70;72.29;99968.10;2110016;84;20998;-88
2022/02/14 06:21:33;;;;;;;33.55;14.78;;;;;;;-3.64;72.65;99979.45;2108822;84;21041;-88
2022/02/14 06:24:35;;;;;;;28.25;12.98;;;;;;;-3.48;72.75;99982.55;2121304;83;21031;-86
2022/02/14 06:27:36;;;;;;;21.00;10.98;;;;;;;-3.33;72.49;99976.53;2114803;84;22406;-88
2022/02/14 06:30:37;;;;;;;20.45;9.85;;;;;;;-3.22;72.27;99971.61;2114166;84;21563;-89
2022/02/14 06:33:39;;;;;;;18.52;10.18;;;;;;;-3.04;72.33;99972.82;2109623;84;21009;-88
2022/02/14 06:36:40;;;;;;;19.35;10.50;;;;;;;-2.81;72.16;99971.58;2113729;84;21016;-88
2022/02/14 06:39:42;;;;;;;30.15;12.80;;;;;;;-2.45;72.58;99972.53;2112659;84;21096;-88
2022/02/14 06:42:47;;;;;;;24.75;12.45;;;;;;;-2.01;72.44;99972.20;2113646;84;21020;-88
2022/02/14 06:45:47;;;;;;;25.92;13.10;;;;;;;-1.72;72.17;99978.27;2114993;84;21031;-88
2022/02/14 06:48:50;;;;;;;30.40;14.18;;;;;;;-1.31;71.88;99972.33;2110338;84;21034;-85
2022/02/14 06:51:51;;;;;;;34.55;15.78;;;;;;;-0.91;71.72;99978.00;2115350;83;21950;-87
2022/02/14 06:54:53;;;;;;;31.77;15.53;;;;;;;-0.51;71.62;99981.98;2117601;84;21073;-85
2022/02/14 06:57:54;;;;;;;23.02;11.12;;;;;;;-0.07;71.24;99978.21;2111452;84;21550;-89
2022/02/14 07:00:55;;;;;;;22.42;11.45;;;;;;;0.37;70.93;99982.22;2110296;84;20975;-87
2022/02/14 07:03:57;;;;;;;18.67;11.33;;;;;;;0.79;70.58;99978.02;2114810;83;21007;-88
2022/02/14 07:06:58;;;;;;;18.30;10.78;;;;;;;1.19;70.50;99973.91;2114053;84;21068;-87
2022/02/14 07:10:00;;;;;;;20.27;12.28;;;;;;;1.56;69.87;99973.38;2115139;84;21064;-91
2022/02/14 07:13:02;;;;;;;23.10;12.60;;;;;;;2.04;69.68;99973.28;2117324;84;21037;-87
2022/02/14 07:16:04;;;;;;;21.33;11.05;;;;;;;2.40;69.01;99970.13;2108339;84;20986;-87
2022/02/14 07:19:06;;;;;;;21.37;12.70;;;;;;;2.78;68.78;99972.86;2116262;84;21099;-86
2022/02/14 07:22:07;;;;;;;22.87;12.88;;;;;;;3.12;68.13;99976.27;2119872;84;21022;-86
2022/02/14 07:25:09;;;;;;;20.27;11.38;;;;;;;3.34;67.65;99968.82;2113644;84;21082;-86
2022/02/14 07:28:10;;;;;;;20.97;12.43;;;;;;;3.56;66.82;99971.85;2117384;82;21046;-86
2022/02/14 07:31:12;;;;;;;19.77;12.78;;;;;;;3.67;66.98;99973.60;2109356;83;21065;-87
2022/02/14 07:34:13;;;;;;;23.25;13.50;;;;;;;3.88;66.69;99971.81;2138415;82;21039;-85
2022/02/14 07:37:14;;;;;;;22.55;12.65;;;;;;;4.00;66.50;99969.50;2137689;82;21561;-86
2022/02/14 07:40:17;;;;;;;27.85;13.43;;;;;;;4.12;66.01;99965.00;2139249;82;21473;-86
2022/02/14 07:43:18;;;;;;;22.93;13.43;;;;;;;4.09;65.46;99973.14;2143361;82;20996;-86
2022/02/14 07:46:19;;;;;;;23.07;13.62;;;;;;;3.98;65.20;99967.47;2136670;82;21098;-86
2022/02/14 07:49:23;;;;;;;23.92;13.65;;;;;;;3.97;65.15;99962.33;2139133;82;21055;-86
2022/02/14 07:52:25;;;;;;;23.35;14.18;;;;;;;3.95;64.70;99955.09;2143280;82;20988;-86
2022/02/14 07:55:26;;;;;;;26.15;15.45;;;;;;;3.90;63.07;99961.20;2145156;82;20996;-85
2022/02/14 07:58:28;;;;;;;23.95;13.58;;;;;;;3.80;63.36;99965.91;2139868;82;21062;-85
2022/02/14 08:01:29;;;;;;;25.97;13.48;;;;;;;3.71;64.51;99954.01;2134801;82;21538;-85
2022/02/14 08:04:30;;;;;;;22.58;14.45;;;;;;;3.75;63.13;99959.38;2113890;83;21518;-86
2022/02/14 08:07:33;;;;;;;24.27;13.15;;;;;;;3.80;64.12;99954.09;2113979;83;21546;-85
2022/02/14 08:10:35;;;;;;;24.80;13.48;;;;;;;4.04;63.06;99957.77;2112105;84;21031;-85
2022/02/14 08:13:36;;;;;;;22.05;14.03;;;;;;;4.33;63.73;99961.52;2113519;84;21045;-84
2022/02/14 08:16:38;;;;;;;22.65;13.72;;;;;;;4.50;62.39;99956.96;2112204;84;20997;-85
2022/02/14 08:19:39;;;;;;;25.10;14.00;;;;;;;4.63;62.00;99951.01;2116005;83;20994;-86
2022/02/14 08:22:40;;;;;;;24.23;13.70;;;;;;;4.96;62.80;99949.53;2114000;84;21065;-85
2022/02/14 08:25:42;;;;;;;26.15;14.20;;;;;;;5.38;61.65;99949.67;2113826;83;21646;-85
2022/02/14 08:28:43;;;;;;;21.00;13.15;;;;;;;5.70;62.13;99944.61;2114687;83;21511;-87
2022/02/14 08:31:45;;;;;;;21.27;12.85;;;;;;;6.08;59.79;99948.17;2113501;84;21013;-86
2022/02/14 08:34:47;;;;;;;20.65;12.40;;;;;;;6.17;59.19;99949.16;2106674;84;20985;-86
2022/02/14 08:37:51;;;;;;;22.80;13.53;;;;;;;6.15;59.74;99950.60;2112464;83;21052;-85
2022/02/14 08:40:52;;;;;;;21.68;12.65;;;;;;;6.23;58.84;99951.22;2115169;84;21041;-86
2022/02/14 08:43:53;;;;;;;20.00;11.80;;;;;;;6.29;58.51;99946.20;2115119;82;21038;-85
2022/02/14 08:46:56;;;;;;;20.15;11.45;;;;;;;6.44;57.27;99933.87;2119302;82;21003;-86
2022/02/14 08:49:57;;;;;;;18.00;11.38;;;;;;;6.57;58.22;99943.61;2110989;82;20985;-85
2022/02/14 08:53:03;;;;;;;19.10;11.78;;;;;;;6.78;56.92;99937.26;2117161;82;21591;-85
2022/02/14 08:56:07;;;;;;;18.02;10.38;;;;;;;6.78;57.05;99930.66;2116607;84;21077;-85
2022/02/14 08:59:13;;;;;;;18.62;11.40;;;;;;;6.91;55.07;99924.56;2114718;84;21582;-86
2022/02/14 09:02:13;;;;;;;17.23;10.10;;;;;;;6.95;54.68;99925.45;2115616;83;21833;-86
2022/02/14 09:05:14;;;;;;;16.27;9.98;;;;;;;6.97;54.51;99920.01;2110380;82;21034;-86
2022/02/14 09:08:16;;;;;;;20.32;10.58;;;;;;;6.90;54.46;99915.83;2115173;84;21050;-86
2022/02/14 09:11:17;;;;;;;14.73;9.45;;;;;;;6.91;53.64;99910.05;2117202;84;20998;-85
2022/02/14 09:14:18;;;;;;;19.27;11.18;;;;;;;6.91;53.53;99920.61;2109598;84;20986;-85
2022/02/14 09:17:20;;;;;;;17.35;11.00;;;;;;;6.93;53.13;99909.42;2115042;82;21022;-85
2022/02/14 09:20:23;;;;;;;18.60;11.60;;;;;;;6.92;51.52;99907.75;2112827;84;21062;-85
2022/02/14 09:23:24;;;;;;;22.35;11.83;;;;;;;6.87;51.49;99903.40;2114479;82;20979;-86
2022/02/14 09:26:26;;;;;;;19.98;11.88;;;;;;;6.99;53.48;99899.59;2116709;84;21003;-86
2022/02/14 09:29:27;;;;;;;20.02;10.58;;;;;;;7.24;53.36;99901.99;2113753;84;21018;-86
2022/02/14 09:32:28;;;;;;;17.07;11.68;;;;;;;7.47;52.36;99898.89;2111232;84;21531;-84
2022/02/14 09:35:30;;;;;;;19.27;10.90;;;;;;;7.48;51.18;99888.17;2109236;84;21037;-85
2022/02/14 09:38:32;;;;;;;16.42;10.60;;;;;;;7.71;52.12;99887.69;2116940;84;21062;-86
2022/02/14 09:41:38;;;;;;;19.07;9.88;;;;;;;7.69;50.41;99884.39;2109192;83;21057;-85
2022/02/14 09:44:39;;;;;;;15.78;9.18;;;;;;;7.64;50.22;99886.16;2116266;84;21025;-84
2022/02/14 09:47:44;;;;;;;15.88;9.70;;;;;;;7.54;48.70;99873.03;2107391;83;21065;-85
2022/02/14 09:50:45;;;;;;;21.70;10.08;;;;;;;7.47;50.05;99881.73;2116216;82;21032;-85
2022/02/14 09:53:46;;;;;;;14.60;8.78;;;;;;;7.55;48.33;99868.60;2107440;84;20982;-84
2022/02/14 09:56:48;;;;;;;16.45;9.43;;;;;;;7.52;46.48;99866.27;2112988;84;21005;-85
2022/02/14 09:59:49;;;;;;;13.53;9.15;;;;;;;7.50;48.21;99876.15;2112287;83;21565;-85
2022/02/14 10:03:15;;;;;;;17.25;10.48;;;;;;;7.57;48.08;99879.36;2112437;84;21050;-86
2022/02/14 10:06:30;;;;;;;19.67;11.75;;;;;;;7.63;49.34;99872.13;2117789;84;22129;-84
2022/02/14 10:09:36;;;;;;;18.12;10.82;;;;;;;7.95;49.58;99880.44;2113639;84;21007;-86
2022/02/14 10:12:44;;;;;;;19.42;11.40;;;;;;;8.07;49.04;99869.93;2117957;84;20994;-85
2022/02/14 10:15:50;;;;;;;21.65;11.63;;;;;;;8.30;48.72;99870.20;2111324;84;21011;-84
2022/02/14 10:18:51;;;;;;;22.35;12.23;;;;;;;8.36;47.54;99865.60;2111784;84;21037;-87
2022/02/14 10:21:54;;;;;;;23.57;12.15;;;;;;;8.33;48.90;99870.39;2117202;82;21571;-86
2022/02/14 10:24:55;;;;;;;20.77;12.03;;;;;;;8.24;48.53;99858.45;2112261;83;21050;-86
2022/02/14 10:28:25;;;;;;;19.80;12.10;;;;;;;8.41;48.58;99857.23;2115717;84;21469;-86
2022/02/14 10:31:27;;;;;;;14.60;10.57;;;;;;;8.51;47.27;99854.81;2106276;84;21085;-86
2022/02/14 10:34:52;;;;;;;19.70;11.50;;;;;;;8.52;48.86;99857.77;2110525;84;21571;-84
2022/02/14 10:37:53;;;;;;;19.50;11.00;;;;;;;8.73;48.15;99853.89;2109127;83;21058;-85
2022/02/14 10:40:55;;;;;;;17.77;11.00;;;;;;;8.94;48.41;99852.11;2112060;84;21091;-85
2022/02/14 10:44:13;;;;;;;16.95;10.72;;;;;;;9.09;48.72;99849.64;2112078;84;21009;-85
2022/02/14 10:47:21;;;;;;;18.02;10.40;;;;;;;9.10;47.80;99839.41;2112426;84;21501;-85
2022/02/14 10:50:26;;;;;;;15.45;10.13;;;;;;;9.29;48.69;99828.50;2114557;84;20990;-85
2022/02/14 10:53:29;;;;;;;14.70;9.30;;;;;;;9.34;47.64;99819.55;2116574;84;21015;-86
2022/02/14 10:56:39;;;;;;;13.30;9.03;;;;;;;9.48;47.91;99823.84;2111345;84;21061;-85
2022/02/14 10:59:44;;;;;;;;;;;;;;;9.63;48.03;99819.55;2115579;84;21018;-85
2022/02/14 11:02:49;;;;;;;13.38;9.60;;;;;;;9.78;46.31;99811.23;2110607;82;20158;-83
2022/02/14 11:06:07;;;;;;;15.28;8.23;;;;;;;9.70;46.17;99808.59;2117173;83;21488;-85
2022/02/14 11:09:09;;;;;;;16.32;9.13;;;;;;;9.22;43.47;99805.50;2114927;84;21060;-85
2022/02/14 11:12:12;;;;;;;13.55;9.60;;;;;;;8.71;45.22;99800.31;2118190;84;21031;-87
2022/02/14 11:15:15;;;;;;;13.83;9.38;;;;;;;8.49;44.26;99789.34;2111586;83;21042;-86
2022/02/14 11:18:21;;;;;;;16.32;9.93;;;;;;;8.23;44.83;99789.41;2110562;84;21046;-85
2022/02/14 11:21:27;;;;;;;15.00;9.75;;;;;;;8.13;46.29;99791.33;2111283;84;21592;-85
2022/02/14 11:24:30;;;;;;;18.60;9.93;;;;;;;8.29;46.60;99793.23;2111091;84;20967;-86
2022/02/14 11:27:36;;;;;;;19.92;10.48;;;;;;;8.37;46.54;99785.33;2110011;83;21092;-86
2022/02/14 11:30:38;;;;;;;15.95;8.90;;;;;;;8.43;45.67;99786.03;2114338;84;21079;-86
2022/02/14 11:33:41;;;;;;;16.07;9.40;;;;;;;8.35;46.85;99780.69;2109966;84;21069;-86
2022/02/14 11:36:48;;;;;;;14.93;9.85;;;;;;;8.37;45.45;99782.69;2113367;82;21033;-87
2022/02/14 11:39:49;;;;;;;16.95;9.90;;;;;;;8.26;46.69;99775.05;2108411;84;21089;-85
2022/02/14 11:43:16;;;;;;;16.00;9.23;;;;;;;8.36;47.38;99766.97;2115001;83;21094;-86
2022/02/14 11:46:20;;;;;;;13.90;9.53;;;;;;;8.48;47.17;99763.09;2114800;84;21036;-85
2022/02/14 11:49:23;;;;;;;14.33;9.95;;;;;;;8.58;46.30;99754.98;2111922;84;21882;-85
2022/02/14 11:52:38;;;;;;;16.50;9.68;;;;;;;8.66;47.29;99751.04;2117272;84;21082;-85
2022/02/14 11:55:39;;;;;;;13.53;9.75;;;;;;;8.70;45.96;99744.42;2106198;84;21539;-85
2022/02/14 11:59:16;;;;;;;17.57;9.90;;;;;;;8.60;45.83;99741.12;2119378;84;21054;-85
2022/02/14 12:02:29;;;;;;;12.55;8.53;;;;;;;8.47;45.26;99738.44;2111930;84;21010;-84
2022/02/14 12:05:47;;;;;;;15.85;9.35;;;;;;;8.51;47.08;99731.03;2109211;83;21597;-85
2022/02/14 12:09:01;;;;;;;12.95;8.85;;;;;;;8.57;46.54;99722.94;2108363;84;21034;-83
2022/02/14 12:12:02;;;;;;;14.60;9.10;;;;;;;8.68;47.15;99711.54;2110563;84;21543;-85
2022/02/14 12:21:55;;;;;;;12.25;8.35;;;;;;;8.71;45.97;99698.48;2113819;84;21133;-86
2022/02/14 12:24:57;;;;;;;11.78;7.45;;;;;;;8.59;44.97;99686.08;2112349;84;21501;-86
2022/02/14 12:28:01;;;;;;;13.40;8.10;;;;;;;8.51;46.18;99688.22;2106542;84;21021;-85
2022/02/14 12:31:05;;;;;;;11.70;6.83;;;;;;;8.57;46.00;99683.27;2109735;83;21665;-85
2022/02/14 12:34:06;;;;;;;11.70;7.80;;;;;;;8.63;46.22;99681.28;2110884;84;21058;-88
2022/02/14 12:37:12;;;;;;;11.90;7.47;;;;;;;8.66;46.09;99675.66;2111685;84;20967;-85
2022/02/14 12:40:13;;;;;;;10.25;6.83;;;;;;;8.73;46.09;99680.64;2114951;83;21562;-85
2022/02/14 12:43:27;;;;;;;9.30;6.80;;;;;;;8.71;44.76;99674.67;2118924;83;21031;-87
2022/02/14 12:46:31;;;;;;;11.30;7.35;;;;;;;8.67;45.57;99668.05;2116047;84;20998;-84
2022/02/14 12:49:32;;;;;;;10.50;6.78;;;;;;;8.65;45.94;99660.30;2115892;82;21039;-88
2022/02/14 12:52:34;;;;;;;9.43;6.65;;;;;;;8.65;44.33;99662.12;2110915;84;21013;-83
2022/02/14 12:55:36;;;;;;;9.38;6.17;;;;;;;8.66;45.82;99668.55;2115553;84;21073;-86
2022/02/14 12:58:57;;;;;;;14.10;6.62;;;;;;;8.69;45.78;99663.42;2110778;84;21590;-86
2022/02/14 13:01:58;;;;;;;11.10;6.12;;;;;;;8.78;45.98;99654.48;2117336;82;21535;-86
2022/02/14 13:04:59;;;;;;;9.95;5.53;;;;;;;8.81;45.80;99643.57;2111414;84;21017;-87
2022/02/14 13:08:25;;;;;;;11.78;6.08;;;;;;;8.75;43.89;99642.92;2109527;82;20986;-85
2022/02/14 13:11:26;;;;;;;8.30;5.90;;;;;;;8.64;43.94;99649.87;2113249;84;21527;-86
2022/02/14 13:14:32;;;;;;;9.23;5.90;;;;;;;8.59;43.66;99649.53;2115046;84;21526;-86
2022/02/14 13:17:34;;;;;;;7.25;5.62;;;;;;;8.51;43.70;99643.77;2113598;84;21034;-86
2022/02/14 13:20:37;;;;;;;11.15;5.60;;;;;;;8.49;44.84;99639.95;2110254;84;21475;-85
2022/02/14 13:23:38;;;;;;;8.70;5.15;;;;;;;8.57;44.86;99631.20;2109811;84;21536;-86
2022/02/14 13:26:39;;;;;;;8.30;5.30;;;;;;;8.65;45.11;99627.73;2107457;84;21007;-87
2022/02/14 13:29:47;;;;;;;10.60;4.90;;;;;;;8.69;44.03;99620.61;2110888;84;21849;-86
2022/02/14 13:32:50;;;;;;;7.95;5.08;;;;;;;8.67;44.39;99619.11;2109019;84;21013;-86
2022/02/14 13:36:05;;;;;;;7.25;4.62;;;;;;;8.64;42.65;99611.02;2108096;84;20991;-86
2022/02/14 13:39:06;;;;;;;6.92;4.95;;;;;;;8.56;43.51;99618.98;2111760;84;21029;-86
2022/02/14 13:42:11;;;;;;;7.58;5.12;;;;;;;8.54;43.84;99607.73;2113349;84;21532;-88
2022/02/14 13:45:13;;;;;;;9.23;6.35;;;;;;;8.54;44.27;99595.84;2114306;83;21536;-86
2022/02/14 13:48:29;;;;;;;10.75;7.45;;;;;;;8.52;44.58;99607.89;2109867;84;20974;-85
2022/02/14 13:51:32;;;;;;;9.80;6.33;;;;;;;8.49;44.86;99616.16;2112191;84;21553;-86
2022/02/14 13:54:33;;;;;;;9.70;6.95;;;;;;;8.35;45.27;99615.46;2108103;83;21062;-86
2022/02/14 13:57:35;;;;;;;11.25;7.25;;;;;;;8.25;46.58;99616.10;2114039;83;21093;-85
2022/02/14 14:00:41;;;;;;;13.48;6.75;;;;;;;8.14;46.63;99612.45;2088721;84;21058;-86
2022/02/14 14:03:42;;;;;;;9.78;7.30;;;;;;;8.11;47.13;99612.78;2117957;84;21073;-85
2022/02/14 14:06:44;;;;;;;10.03;6.97;;;;;;;8.05;47.08;99612.47;2113267;84;21465;-86
2022/02/14 14:09:55;;;;;;;13.03;8.25;;;;;;;8.01;47.54;99615.09;2119988;84;21613;-86
2022/02/14 14:12:56;;;;;;;11.60;7.55;;;;;;;7.97;47.61;99618.20;2110752;84;21021;-85
2022/02/14 14:15:57;;;;;;;12.28;7.65;;;;;;;7.91;47.84;99613.58;2118499;84;21472;-85